Time;durP1;ratioP1;P1;durP2;ratioP2;P2;SDS_P1;SDS_P2;PMS_P1;PMS_P2;Temp;Humidity;BMP_temperature;BMP_pressure;BME280_temperature;BME280_humidity;BME280_pressure;Samples;Min_cycle;Max_cycle;Signal;HPM_P1;HPM_P2
2024/01/07 00:00:25;;;;;;;;;;;;;;;9.69;55.99;101393.03;4213493;28;19973;-53
2024/01/07 00:02:26;;;;;;;;;;;;;;;9.68;55.88;101386.91;4213797;28;20014;-53
2024/01/07 00:04:28;;;;;;;;;;;;;;;9.68;55.75;101392.16;4213542;28;19981;-50
2024/01/07 00:06:30;;;;;;;;;;;;;;;9.68;55.90;101396.56;4213843;28;19924;-50
2024/01/07 00:08:31;;;;;;;;;;;;;;;9.67;55.93;101394.81;4213835;28;19924;-49
2024/01/07 00:10:37;;;;;;;;;;;;;;;9.66;56.09;101393.97;4213492;28;19930;-52
2024/01/07 00:12:39;;;;;;;;;;;;;;;9.68;56.22;101404.44;4212159;28;19927;-51
2024/01/07 00:14:41;;;;;;;;;;;;;;;9.66;55.87;101399.22;4213594;28;19926;-47
2024/01/07 00:16:42;;;;;;;;;;;;;;;9.66;55.90;101395.72;4213574;28;20022;-49
2024/01/07 00:18:44;;;;;;;;;;;;;;;9.66;55.99;101400.97;4213685;28;19951;-50
2024/01/07 00:20:46;;;;;;;;;;;;;;;9.66;56.09;101404.47;4213750;28;19965;-51
2024/01/07 00:22:48;;;;;;;;;;;;;;;9.66;55.98;101403.59;4213641;28;20356;-48
2024/01/07 00:24:49;;;;;;;;;;;;;;;9.66;55.91;101408.84;4213422;28;19920;-51
2024/01/07 00:26:51;;;;;;;;;;;;;;;9.67;55.85;101405.31;4213155;28;20438;-51
2024/01/07 00:28:52;;;;;;;;;;;;;;;9.66;55.79;101403.59;4213484;28;20382;-50
2024/01/07 00:30:59;;;;;;;;;;;;;;;9.57;55.88;101391.53;4213162;28;19920;-50
2024/01/07 00:33:01;;;;;;;;;;;;;;;9.65;55.79;101408.00;4213430;28;19942;-48
2024/01/07 00:35:02;;;;;;;;;;;;;;;9.66;55.82;101406.22;4213546;28;19920;-52
2024/01/07 00:37:04;;;;;;;;;;;;;;;9.65;55.76;101405.38;4213314;28;20014;-50
2024/01/07 00:39:06;;;;;;;;;;;;;;;9.66;55.98;101406.22;4213427;28;19924;-48
2024/01/07 00:41:08;;;;;;;;;;;;;;;9.65;55.92;101407.09;4213403;28;20349;-48
2024/01/07 00:43:09;;;;;;;;;;;;;;;9.66;55.78;101408.84;4213200;28;19927;-50
2024/01/07 00:45:11;;;;;;;;;;;;;;;9.65;55.62;101409.72;4213294;28;20402;-51
2024/01/07 00:47:13;;;;;;;;;;;;;;;9.64;55.83;101411.50;4213369;28;20019;-51
2024/01/07 00:49:14;;;;;;;;;;;;;;;9.65;56.02;101408.00;4213214;28;20011;-53
2024/01/07 00:51:16;;;;;;;;;;;;;;;9.64;55.56;101408.03;4213213;28;19920;-50
2024/01/07 00:53:22;;;;;;;;;;;;;;;9.64;55.54;101415.91;4212056;28;20376;-49
2024/01/07 00:55:24;;;;;;;;;;;;;;;9.63;55.70;101412.41;4213056;28;19924;-48
2024/01/07 00:57:25;;;;;;;;;;;;;;;9.63;55.58;101420.28;4211464;28;19920;-48
2024/01/07 00:59:28;;;;;;;;;;;;;;;9.63;55.82;101416.81;4212944;28;19936;-48
2024/01/07 01:01:30;;;;;;;;;;;;;;;9.62;55.68;101410.66;4213383;28;20492;-49
2024/01/07 01:03:31;;;;;;;;;;;;;;;9.62;55.95;101415.91;4213183;28;19948;-51
2024/01/07 01:05:33;;;;;;;;;;;;;;;9.61;55.86;101408.94;4215677;28;19920;-50
2024/01/07 01:07:34;;;;;;;;;;;;;;;9.62;55.55;101418.53;4216284;28;20448;-52
2024/01/07 01:09:36;;;;;;;;;;;;;;;9.62;55.76;101413.28;4216386;28;19955;-49
2024/01/07 01:11:37;;;;;;;;;;;;;;;9.60;55.74;101417.72;4216192;28;20396;-50
2024/01/07 01:13:39;;;;;;;;;;;;;;;9.60;55.88;101415.09;4216360;28;19920;-49
2024/01/07 01:15:41;;;;;;;;;;;;;;;9.60;55.82;101420.34;4216144;28;20310;-50
2024/01/07 01:17:42;;;;;;;;;;;;;;;9.59;55.92;101422.09;4216285;28;20340;-50
2024/01/07 01:19:44;;;;;;;;;;;;;;;9.59;55.74;101429.97;4216243;28;20002;-48
2024/01/07 01:21:46;;;;;;;;;;;;;;;9.58;55.61;101422.13;4231722;28;19923;-49
2024/01/07 01:23:47;;;;;;;;;;;;;;;9.57;55.84;101425.66;4216126;28;19923;-48
2024/01/07 01:25:49;;;;;;;;;;;;;;;9.58;55.50;101422.13;4215581;28;19920;-48
2024/01/07 01:27:50;;;;;;;;;;;;;;;9.57;55.63;101429.16;4216189;28;19954;-50
2024/01/07 01:29:52;;;;;;;;;;;;;;;9.57;55.59;101430.91;4215833;28;19977;-48
2024/01/07 01:31:53;;;;;;;;;;;;;;;9.57;55.54;101425.66;4215751;28;20308;-50
2024/01/07 01:33:55;;;;;;;;;;;;;;;9.56;55.42;101437.06;4216050;28;19974;-50
2024/01/07 01:35:57;;;;;;;;;;;;;;;9.57;55.62;101441.41;4215670;28;19919;-46
2024/01/07 01:37:58;;;;;;;;;;;;;;;9.56;55.50;101440.56;4215721;28;19924;-46
2024/01/07 01:40:00;;;;;;;;;;;;;;;9.57;55.68;101449.28;4215744;28;19927;-47
2024/01/07 01:42:02;;;;;;;;;;;;;;;9.56;55.70;101444.94;4215868;28;19920;-50
2024/01/07 01:44:03;;;;;;;;;;;;;;;9.57;55.40;101446.66;4215845;28;19973;-47
2024/01/07 01:46:05;;;;;;;;;;;;;;;9.56;55.38;101452.81;4215695;28;19920;-49
2024/01/07 01:48:07;;;;;;;;;;;;;;;9.56;55.33;101453.69;4215866;28;20014;-47
2024/01/07 01:50:10;;;;;;;;;;;;;;;9.57;55.41;101458.06;4215823;28;19966;-49
2024/01/07 01:52:13;;;;;;;;;;;;;;;9.58;55.32;101458.91;4214755;28;20056;-51
2024/01/07 01:54:15;;;;;;;;;;;;;;;9.57;55.40;101460.69;4215412;28;19927;-49
2024/01/07 01:56:17;;;;;;;;;;;;;;;9.57;55.39;101460.69;4215487;28;19927;-47
2024/01/07 01:58:19;;;;;;;;;;;;;;;9.57;55.26;101462.41;4215549;28;19962;-47
2024/01/07 02:00:21;;;;;;;;;;;;;;;9.56;55.60;101464.19;4215547;28;20288;-50
2024/01/07 02:02:23;;;;;;;;;;;;;;;9.57;55.15;101467.66;4215466;28;19927;-48
2024/01/07 02:04:24;;;;;;;;;;;;;;;9.56;55.26;101465.94;4215660;28;19924;-48
2024/01/07 02:06:26;;;;;;;;;;;;;;;9.57;55.39;101472.94;4215286;28;19931;-51
2024/01/07 02:08:29;;;;;;;;;;;;;;;9.56;55.29;101468.56;4214114;28;19920;-49
2024/01/07 02:10:34;;;;;;;;;;;;;;;9.54;55.31;101465.97;4215553;28;19959;-47
2024/01/07 02:12:36;;;;;;;;;;;;;;;9.57;55.37;101475.56;4215293;28;20011;-49
2024/01/07 02:14:38;;;;;;;;;;;;;;;9.56;55.27;101473.81;4215104;28;19919;-50
2024/01/07 02:16:40;;;;;;;;;;;;;;;9.56;55.46;101468.56;4214264;28;20319;-50
2024/01/07 02:18:42;;;;;;;;;;;;;;;9.56;55.33;101473.81;4215415;28;19923;-50
2024/01/07 02:20:44;;;;;;;;;;;;;;;9.56;55.38;101471.19;4215224;28;20014;-49
2024/01/07 02:22:46;;;;;;;;;;;;;;;9.54;55.12;101473.84;4215240;28;20395;-51
2024/01/07 02:24:47;;;;;;;;;;;;;;;9.54;55.61;101473.00;4214789;28;19920;-49
2024/01/07 02:26:49;;;;;;;;;;;;;;;9.54;55.35;101470.38;4215028;28;20421;-48
2024/01/07 02:28:51;;;;;;;;;;;;;;;9.54;55.26;101465.13;4215196;28;19959;-48
2024/01/07 02:30:52;;;;;;;;;;;;;;;9.53;55.49;101464.25;4215185;28;19920;-49
2024/01/07 02:32:54;;;;;;;;;;;;;;;9.52;55.57;101462.50;4214886;28;19927;-53
2024/01/07 02:34:56;;;;;;;;;;;;;;;9.53;55.37;101472.13;4214964;28;19920;-50
2024/01/07 02:36:58;;;;;;;;;;;;;;;9.54;55.40;101473.00;4214956;28;19920;-47
2024/01/07 02:39:00;;;;;;;;;;;;;;;9.53;55.34;101472.13;4214619;28;19923;-51
2024/01/07 02:41:01;;;;;;;;;;;;;;;9.53;55.20;101477.38;4214933;28;19926;-52
2024/01/07 02:43:03;;;;;;;;;;;;;;;9.53;55.29;101477.38;4215170;28;19934;-48
2024/01/07 02:45:05;;;;;;;;;;;;;;;9.53;55.20;101477.38;4214992;28;19919;-47
2024/01/07 02:47:06;;;;;;;;;;;;;;;9.52;55.22;101475.63;4214793;28;19924;-50
2024/01/07 02:49:08;;;;;;;;;;;;;;;9.53;55.12;101473.88;4214576;28;19967;-48
2024/01/07 02:51:10;;;;;;;;;;;;;;;9.52;55.18;101475.63;4214712;28;19924;-48
2024/01/07 02:53:11;;;;;;;;;;;;;;;9.52;55.46;101473.00;4214364;28;19963;-50
2024/01/07 02:55:13;;;;;;;;;;;;;;;9.52;55.25;101480.03;4214471;28;19919;-50
2024/01/07 02:57:15;;;;;;;;;;;;;;;9.52;55.08;101480.88;4214513;28;20018;-48
2024/01/07 02:59:17;;;;;;;;;;;;;;;9.50;55.32;101480.06;4214682;28;20327;-52
2024/01/07 03:01:21;;;;;;;;;;;;;;;9.50;55.31;101473.94;4214398;28;19920;-51
2024/01/07 03:03:22;;;;;;;;;;;;;;;9.50;55.22;101481.81;4214791;28;19920;-49
2024/01/07 03:05:24;;;;;;;;;;;;;;;9.50;55.37;101473.94;4214525;28;19924;-52
2024/01/07 03:07:26;;;;;;;;;;;;;;;9.49;55.16;101477.44;4213950;28;20026;-48
2024/01/07 03:09:27;;;;;;;;;;;;;;;9.49;55.04;101480.06;4214247;28;20027;-48
2024/01/07 03:11:29;;;;;;;;;;;;;;;9.48;55.06;101487.09;4214439;28;20018;-49
2024/01/07 03:13:31;;;;;;;;;;;;;;;9.48;55.32;101481.84;4214485;28;19967;-45
2024/01/07 03:15:32;;;;;;;;;;;;;;;9.48;54.98;101486.22;4214399;28;20401;-53
2024/01/07 03:17:34;;;;;;;;;;;;;;;9.48;55.42;101494.09;4214221;28;19920;-52
2024/01/07 03:19:37;;;;;;;;;;;;;;;9.47;55.03;101485.38;4214312;28;20015;-51
2024/01/07 03:21:39;;;;;;;;;;;;;;;9.47;55.03;101482.75;4212896;28;19927;-51
2024/01/07 03:23:40;;;;;;;;;;;;;;;9.46;54.94;101475.75;4214385;28;20313;-47
2024/01/07 03:25:42;;;;;;;;;;;;;;;9.46;54.93;101488.03;4214369;28;19927;-49
2024/01/07 03:27:43;;;;;;;;;;;;;;;9.46;55.23;101477.53;4213843;28;20344;-50
2024/01/07 03:29:45;;;;;;;;;;;;;;;9.46;55.30;101472.28;4213855;28;19920;-49
2024/01/07 03:31:47;;;;;;;;;;;;;;;9.46;55.10;101474.91;4214063;28;20014;-51
2024/01/07 03:33:48;;;;;;;;;;;;;;;9.46;55.33;101480.16;4214254;28;19920;-48
2024/01/07 03:35:50;;;;;;;;;;;;;;;9.46;55.18;101481.00;4213860;28;19924;-48
2024/01/07 03:37:52;;;;;;;;;;;;;;;9.45;54.97;101479.28;4214188;28;19958;-49
2024/01/07 03:39:53;;;;;;;;;;;;;;;9.45;54.89;101481.03;4214132;28;19963;-50
2024/01/07 03:41:55;;;;;;;;;;;;;;;9.46;54.99;101485.41;4214045;28;20011;-50
2024/01/07 03:43:57;;;;;;;;;;;;;;;9.46;55.07;101485.41;4213981;28;19920;-51
2024/01/07 03:46:00;;;;;;;;;;;;;;;9.45;54.86;101489.78;4212668;28;19958;-48
2024/01/07 03:48:01;;;;;;;;;;;;;;;9.45;54.88;101492.41;4214022;28;19926;-52
2024/01/07 03:50:03;;;;;;;;;;;;;;;9.45;55.05;101491.53;4213783;28;20122;-47
2024/01/07 03:52:05;;;;;;;;;;;;;;;9.44;54.67;101493.28;4213957;28;19998;-48
2024/01/07 03:54:07;;;;;;;;;;;;;;;9.45;54.72;101491.53;4213789;28;19924;-46
2024/01/07 03:56:09;;;;;;;;;;;;;;;9.44;54.65;101488.03;4213867;28;20310;-48
2024/01/07 03:58:10;;;;;;;;;;;;;;;9.43;55.04;101492.44;4213859;28;19966;-50
2024/01/07 04:00:12;;;;;;;;;;;;;;;9.43;54.73;101489.81;4213622;28;19920;-49
2024/01/07 04:02:16;;;;;;;;;;;;;;;9.42;54.80;101493.31;4213907;28;19969;-49
2024/01/07 04:04:17;;;;;;;;;;;;;;;9.42;54.83;101503.81;4213847;28;20421;-47
2024/01/07 04:06:20;;;;;;;;;;;;;;;9.42;54.71;101495.94;4213606;28;19927;-47
2024/01/07 04:08:21;;;;;;;;;;;;;;;9.42;54.74;101498.56;4213617;28;19973;-48
2024/01/07 04:10:23;;;;;;;;;;;;;;;9.42;54.61;101500.34;4213808;28;19923;-47
2024/01/07 04:12:24;;;;;;;;;;;;;;;9.42;54.83;101495.94;4213804;28;20007;-50
2024/01/07 04:14:27;;;;;;;;;;;;;;;9.42;54.81;101497.72;4213821;28;20280;-47
2024/01/07 04:16:29;;;;;;;;;;;;;;;9.41;54.51;101501.22;4213683;28;19924;-49
2024/01/07 04:18:30;;;;;;;;;;;;;;;9.41;54.59;101496.84;4213615;28;19928;-49
2024/01/07 04:20:32;;;;;;;;;;;;;;;9.41;54.62;101503.84;4213328;28;19930;-47
2024/01/07 04:22:33;;;;;;;;;;;;;;;9.40;54.70;101502.97;4213522;28;19942;-50
2024/01/07 04:24:35;;;;;;;;;;;;;;;9.40;54.41;101507.38;4213812;28;19958;-47
2024/01/07 04:26:37;;;;;;;;;;;;;;;9.40;54.75;101502.13;4212252;28;20394;-48
2024/01/07 04:28:41;;;;;;;;;;;;;;;9.41;54.66;101511.75;4213656;28;19924;-48
2024/01/07 04:30:42;;;;;;;;;;;;;;;9.40;54.79;101508.22;4213669;28;19920;-46
2024/01/07 04:32:44;;;;;;;;;;;;;;;9.40;54.56;101508.22;4213702;28;19926;-49
2024/01/07 04:34:46;;;;;;;;;;;;;;;9.40;54.54;101512.63;4213373;28;20332;-48
2024/01/07 04:36:47;;;;;;;;;;;;;;;9.40;54.44;101510.84;4213322;28;19974;-47
2024/01/07 04:38:49;;;;;;;;;;;;;;;9.40;54.70;101510.00;4213091;28;20367;-50
2024/01/07 04:40:51;;;;;;;;;;;;;;;9.38;54.50;101509.16;4216765;28;19963;-48
2024/01/07 04:42:58;;;;;;;;;;;;;;;9.38;54.53;101510.03;4216930;28;19927;-49
2024/01/07 04:45:00;;;;;;;;;;;;;;;9.38;54.18;101510.03;4216631;28;19966;-47
2024/01/07 04:47:02;;;;;;;;;;;;;;;9.37;54.59;101513.53;4216940;28;19926;-48
2024/01/07 04:49:05;;;;;;;;;;;;;;;9.37;54.57;101521.44;4216561;28;19920;-47
2024/01/07 04:51:08;;;;;;;;;;;;;;;9.36;54.41;101508.34;4216826;28;19927;-50
2024/01/07 04:53:09;;;;;;;;;;;;;;;9.36;54.42;101511.81;4216812;28;19946;-48
2024/01/07 04:55:11;;;;;;;;;;;;;;;9.36;54.14;101518.84;4216490;28;19932;-48
2024/01/07 04:57:17;;;;;;;;;;;;;;;9.37;54.34;101518.81;4216515;28;19939;-49
2024/01/07 04:59:19;;;;;;;;;;;;;;;9.36;54.45;101521.47;4216427;28;19920;-49
2024/01/07 05:01:23;;;;;;;;;;;;;;;9.36;54.26;101524.09;4216419;28;19982;-48
2024/01/07 05:03:25;;;;;;;;;;;;;;;9.36;54.49;101522.31;4216126;28;19999;-47
2024/01/07 05:05:27;;;;;;;;;;;;;;;9.35;54.46;101515.31;4216547;28;19920;-47
2024/01/07 05:07:28;;;;;;;;;;;;;;;9.35;54.22;101523.19;4216310;28;20020;-48
2024/01/07 05:09:31;;;;;;;;;;;;;;;9.35;54.33;101514.47;4216361;28;19920;-49
2024/01/07 05:11:39;;;;;;;;;;;;;;;9.34;54.22;101524.09;4216354;28;20015;-49
2024/01/07 05:13:40;;;;;;;;;;;;;;;9.34;54.30;101524.09;4216253;28;19920;-47
2024/01/07 05:15:42;;;;;;;;;;;;;;;9.33;54.24;101521.50;4216430;28;19946;-46
2024/01/07 05:17:43;;;;;;;;;;;;;;;9.34;54.44;101520.63;4216041;28;19920;-46
2024/01/07 05:19:45;;;;;;;;;;;;;;;9.33;54.34;101525.00;4216138;28;20022;-47
2024/01/07 05:21:47;;;;;;;;;;;;;;;9.34;54.15;101524.09;4216216;28;20287;-49
2024/01/07 05:23:49;;;;;;;;;;;;;;;9.33;54.17;101532.88;4216257;28;19930;-48
2024/01/07 05:25:50;;;;;;;;;;;;;;;9.33;54.22;101532.00;4216264;28;20397;-48
2024/01/07 05:27:52;;;;;;;;;;;;;;;9.32;54.33;101530.25;4216076;28;20383;-48
2024/01/07 05:29:55;;;;;;;;;;;;;;;9.32;54.12;101531.16;4216152;28;19935;-48
2024/01/07 05:31:58;;;;;;;;;;;;;;;9.32;54.13;101535.50;4215785;28;19963;-48
2024/01/07 05:33:59;;;;;;;;;;;;;;;9.32;54.14;101538.13;4215874;28;19920;-50
2024/01/07 05:36:02;;;;;;;;;;;;;;;9.32;54.22;101539.03;4216205;28;19924;-50
2024/01/07 05:38:03;;;;;;;;;;;;;;;9.31;54.22;101531.16;4215795;28;20382;-49
2024/01/07 05:40:06;;;;;;;;;;;;;;;9.32;54.29;101540.75;4215901;28;19943;-48
2024/01/07 05:42:08;;;;;;;;;;;;;;;9.33;53.93;101534.63;4216053;28;19944;-48
2024/01/07 05:44:09;;;;;;;;;;;;;;;9.32;53.96;101539.03;4215763;28;19945;-45
2024/01/07 05:46:12;;;;;;;;;;;;;;;9.32;53.94;101538.13;4215585;28;19924;-47
2024/01/07 05:48:13;;;;;;;;;;;;;;;9.31;54.00;101539.91;4215888;28;19920;-48
2024/01/07 05:50:15;;;;;;;;;;;;;;;9.32;54.10;101538.13;4215724;28;20410;-50
2024/01/07 05:52:17;;;;;;;;;;;;;;;9.32;54.02;101538.13;4214711;28;19928;-48
2024/01/07 05:54:19;;;;;;;;;;;;;;;9.32;54.20;101546.00;4215561;28;19920;-46
2024/01/07 05:56:20;;;;;;;;;;;;;;;9.32;54.13;101543.38;4215550;28;20010;-48
2024/01/07 05:58:22;;;;;;;;;;;;;;;9.31;54.04;101545.16;4215706;28;20341;-49
2024/01/07 06:00:23;;;;;;;;;;;;;;;9.31;54.02;101552.16;4215104;28;20318;-50
2024/01/07 06:02:25;;;;;;;;;;;;;;;9.31;54.07;101549.53;4215645;28;20504;-47
2024/01/07 06:04:26;;;;;;;;;;;;;;;9.30;54.21;101548.69;4215286;28;19986;-47
2024/01/07 06:06:28;;;;;;;;;;;;;;;9.31;54.02;101554.78;4215474;28;19963;-48
2024/01/07 06:08:30;;;;;;;;;;;;;;;9.29;53.86;101557.44;4215470;28;20429;-50
2024/01/07 06:10:31;;;;;;;;;;;;;;;9.30;54.10;101560.94;4215550;28;19977;-49
2024/01/07 06:12:33;;;;;;;;;;;;;;;9.29;54.06;101562.69;4215327;28;19942;-47
2024/01/07 06:14:35;;;;;;;;;;;;;;;9.29;54.02;101561.84;4215288;28;19920;-50
2024/01/07 06:16:36;;;;;;;;;;;;;;;9.29;54.15;101564.47;4215065;28;20366;-49
2024/01/07 06:18:38;;;;;;;;;;;;;;;9.29;54.26;101560.06;4215045;28;20306;-48
2024/01/07 06:20:40;;;;;;;;;;;;;;;9.29;54.30;101559.22;4215240;28;19920;-49
2024/01/07 06:22:42;;;;;;;;;;;;;;;9.28;53.98;101563.56;4215251;28;19920;-49
2024/01/07 06:24:43;;;;;;;;;;;;;;;9.29;54.13;101556.59;4215212;28;20398;-47
2024/01/07 06:26:45;;;;;;;;;;;;;;;9.29;53.81;101554.81;4215096;28;20390;-49
2024/01/07 06:28:47;;;;;;;;;;;;;;;9.29;53.97;101556.59;4215518;28;20290;-49
2024/01/07 06:30:48;;;;;;;;;;;;;;;9.29;54.03;101556.59;4214892;28;19920;-49
2024/01/07 06:32:51;;;;;;;;;;;;;;;9.29;53.81;101552.19;4214934;28;19920;-48
2024/01/07 06:34:53;;;;;;;;;;;;;;;9.27;54.12;101562.72;4214955;28;19923;-48
2024/01/07 06:36:54;;;;;;;;;;;;;;;9.27;54.20;101562.72;4215030;28;19923;-51
2024/01/07 06:38:56;;;;;;;;;;;;;;;9.27;54.04;101567.09;4214962;28;19932;-51
2024/01/07 06:41:00;;;;;;;;;;;;;;;9.28;54.05;101568.81;4214849;28;20383;-49
2024/01/07 06:43:02;;;;;;;;;;;;;;;9.26;54.16;101560.97;4214764;28;20302;-47
2024/01/07 06:45:04;;;;;;;;;;;;;;;9.26;54.10;101560.13;4214383;28;19920;-47
2024/01/07 06:47:06;;;;;;;;;;;;;;;9.25;53.89;101564.50;4215026;28;19920;-47
2024/01/07 06:49:08;;;;;;;;;;;;;;;9.25;53.97;101563.63;4214772;28;19969;-47
2024/01/07 06:51:10;;;;;;;;;;;;;;;9.24;54.02;101569.78;4214834;28;19974;-48
2024/01/07 06:53:12;;;;;;;;;;;;;;;9.24;54.00;101573.25;4214756;28;19924;-48
2024/01/07 06:55:13;;;;;;;;;;;;;;;9.24;54.01;101585.53;4214469;28;20006;-47
2024/01/07 06:57:15;;;;;;;;;;;;;;;9.23;54.06;101579.38;4213673;28;19974;-47
2024/01/07 06:59:16;;;;;;;;;;;;;;;9.24;54.00;101594.25;4213996;28;20019;-49
2024/01/07 07:01:20;;;;;;;;;;;;;;;9.24;54.04;101594.25;4214503;28;19974;-50
2024/01/07 07:03:22;;;;;;;;;;;;;;;9.23;54.32;101591.66;4214491;28;19964;-49
2024/01/07 07:05:23;;;;;;;;;;;;;;;9.23;54.08;101591.66;4214349;28;19920;-47
2024/01/07 07:07:25;;;;;;;;;;;;;;;9.23;54.12;101589.03;4214468;28;19928;-50
2024/01/07 07:09:26;;;;;;;;;;;;;;;9.22;54.10;101598.69;4214285;28;20323;-47
2024/01/07 07:11:28;;;;;;;;;;;;;;;9.22;54.26;101597.78;4214556;28;19920;-49
2024/01/07 07:13:34;;;;;;;;;;;;;;;9.21;54.13;101596.94;4214219;28;20290;-48
2024/01/07 07:15:36;;;;;;;;;;;;;;;9.22;54.08;101603.03;4214353;28;20308;-49
2024/01/07 07:17:38;;;;;;;;;;;;;;;9.21;54.13;101607.44;4214448;28;19919;-49
2024/01/07 07:19:39;;;;;;;;;;;;;;;9.21;54.32;101609.19;4214255;28;20011;-48
2024/01/07 07:21:46;;;;;;;;;;;;;;;9.21;54.16;101614.44;4214160;28;19973;-47
2024/01/07 07:23:47;;;;;;;;;;;;;;;9.19;54.04;101614.47;4214300;28;19924;-49
2024/01/07 07:25:49;;;;;;;;;;;;;;;9.20;54.14;101613.56;4214143;28;20367;-50
2024/01/07 07:27:51;;;;;;;;;;;;;;;9.21;54.19;101617.06;4213835;28;19951;-49
2024/01/07 07:29:52;;;;;;;;;;;;;;;9.21;54.04;101625.81;4214111;28;20593;-48
2024/01/07 07:31:54;;;;;;;;;;;;;;;9.21;54.01;101617.06;4214299;28;19920;-48
2024/01/07 07:33:56;;;;;;;;;;;;;;;9.21;54.09;101624.94;4213943;28;19973;-50
2024/01/07 07:35:58;;;;;;;;;;;;;;;9.20;54.11;101629.31;4212518;28;20001;-44
2024/01/07 07:37:59;;;;;;;;;;;;;;;9.21;54.19;101630.19;4214420;28;20268;-47
2024/01/07 07:40:01;;;;;;;;;;;;;;;9.20;54.32;101631.94;4214006;28;19962;-49
2024/01/07 07:42:03;;;;;;;;;;;;;;;9.18;54.34;101623.22;4213753;28;20014;-50
2024/01/07 07:44:04;;;;;;;;;;;;;;;9.20;54.11;101629.31;4213921;28;20264;-50
2024/01/07 07:46:06;;;;;;;;;;;;;;;9.18;54.33;101622.38;4213906;28;20347;-50
2024/01/07 07:48:08;;;;;;;;;;;;;;;9.17;54.03;101621.47;4214016;28;19931;-49
2024/01/07 07:50:10;;;;;;;;;;;;;;;9.17;54.02;101615.38;4213773;28;19962;-50
2024/01/07 07:52:14;;;;;;;;;;;;;;;9.16;54.30;101624.13;4213724;28;19920;-52
2024/01/07 07:54:16;;;;;;;;;;;;;;;9.15;54.16;101623.28;4213853;28;19966;-50
2024/01/07 07:56:17;;;;;;;;;;;;;;;9.15;54.08;101627.66;4213593;28;19920;-49
2024/01/07 07:58:19;;;;;;;;;;;;;;;9.13;54.04;101625.06;4213713;28;20371;-51
2024/01/07 08:00:26;;;;;;;;;;;;;;;9.15;53.99;101630.28;4213623;28;19920;-50
2024/01/07 08:02:27;;;;;;;;;;;;;;;9.13;54.32;101632.06;4213869;28;19924;-48
2024/01/07 08:04:29;;;;;;;;;;;;;;;9.13;54.06;101640.81;4213787;28;19920;-48
2024/01/07 08:06:31;;;;;;;;;;;;;;;9.13;53.88;101639.94;4213604;28;19920;-50
2024/01/07 08:08:33;;;;;;;;;;;;;;;9.13;54.25;101642.56;4213825;28;19977;-50
2024/01/07 08:10:35;;;;;;;;;;;;;;;9.13;54.09;101646.06;4213515;28;20015;-49
2024/01/07 08:12:36;;;;;;;;;;;;;;;9.12;54.21;101646.94;4213340;28;19951;-50
2024/01/07 08:14:40;;;;;;;;;;;;;;;9.13;53.92;101650.44;4213241;28;20341;-48
2024/01/07 08:16:42;;;;;;;;;;;;;;;9.13;53.93;101655.69;4213754;28;19920;-49
2024/01/07 08:18:44;;;;;;;;;;;;;;;9.11;53.88;101661.84;4213449;28;20302;-50
2024/01/07 08:20:45;;;;;;;;;;;;;;;9.13;53.79;101663.56;4213534;28;19920;-50
2024/01/07 08:22:47;;;;;;;;;;;;;;;9.13;53.84;101658.31;4213637;28;20310;-50
2024/01/07 08:24:50;;;;;;;;;;;;;;;9.13;53.88;101661.78;4213559;28;20401;-54
2024/01/07 08:26:51;;;;;;;;;;;;;;;9.13;53.69;101664.41;4213408;28;19920;-50
2024/01/07 08:28:53;;;;;;;;;;;;;;;9.13;53.80;101661.78;4213600;28;19927;-49
2024/01/07 08:30:56;;;;;;;;;;;;;;;9.14;53.96;101667.91;4213512;28;19930;-49
2024/01/07 08:32:57;;;;;;;;;;;;;;;9.13;53.72;101666.19;4213544;28;20409;-50
2024/01/07 08:34:59;;;;;;;;;;;;;;;9.13;53.92;101661.78;4213542;28;19920;-48
2024/01/07 08:37:01;;;;;;;;;;;;;;;9.13;53.79;101666.19;4213242;28;19920;-51
2024/01/07 08:39:02;;;;;;;;;;;;;;;9.12;54.00;101662.69;4213333;28;19927;-50
2024/01/07 08:41:04;;;;;;;;;;;;;;;9.13;53.91;101671.44;4213164;28;20006;-49
2024/01/07 08:43:06;;;;;;;;;;;;;;;9.11;53.84;101664.47;4213656;28;20394;-51
2024/01/07 08:45:07;;;;;;;;;;;;;;;9.11;53.97;101674.06;4213385;28;20376;-51
2024/01/07 08:47:09;;;;;;;;;;;;;;;9.13;53.80;101674.06;4213309;28;19924;-47
2024/01/07 08:49:16;;;;;;;;;;;;;;;9.13;53.63;101677.53;4213347;28;19920;-48
2024/01/07 08:51:17;;;;;;;;;;;;;;;9.10;53.95;101678.47;4213412;28;19920;-51
2024/01/07 08:53:20;;;;;;;;;;;;;;;9.10;53.58;101681.09;4213669;28;19927;-48
2024/01/07 08:55:22;;;;;;;;;;;;;;;9.10;53.46;101677.56;4212824;28;20173;-48
2024/01/07 08:57:24;;;;;;;;;;;;;;;9.10;53.54;101688.97;4213264;28;20056;-50
2024/01/07 08:59:25;;;;;;;;;;;;;;;9.09;53.73;101697.72;4213012;28;19927;-49
2024/01/07 09:01:26;;;;;;;;;;;;;;;9.10;53.61;101688.06;4213382;28;20314;-49
2024/01/07 09:03:28;;;;;;;;;;;;;;;9.09;53.52;101689.00;4213472;28;19951;-50
2024/01/07 09:05:30;;;;;;;;;;;;;;;9.09;53.67;101689.84;4213043;28;19920;-49
2024/01/07 09:07:32;;;;;;;;;;;;;;;9.10;53.72;101693.31;4213051;28;19963;-48
2024/01/07 09:09:38;;;;;;;;;;;;;;;9.10;53.70;101691.59;4213038;28;20384;-50
2024/01/07 09:11:40;;;;;;;;;;;;;;;9.09;53.71;101702.09;4211987;28;19920;-50
2024/01/07 09:13:42;;;;;;;;;;;;;;;9.08;53.63;101698.59;4213299;28;20422;-48
2024/01/07 09:15:45;;;;;;;;;;;;;;;9.08;53.54;101698.59;4213143;28;19989;-50
2024/01/07 09:17:47;;;;;;;;;;;;;;;9.08;53.51;101695.13;4212986;28;20016;-50
2024/01/07 09:19:48;;;;;;;;;;;;;;;9.07;53.40;101693.38;4212878;28;19927;-48
2024/01/07 09:21:50;;;;;;;;;;;;;;;9.07;53.59;101688.97;4213142;28;19920;-50
2024/01/07 09:23:52;;;;;;;;;;;;;;;9.06;53.49;101700.38;4212850;28;19920;-46
2024/01/07 09:25:54;;;;;;;;;;;;;;;9.07;53.44;101701.25;4212903;28;20031;-49
2024/01/07 09:27:55;;;;;;;;;;;;;;;9.07;53.49;101696.00;4215883;28;20276;-48
2024/01/07 09:29:57;;;;;;;;;;;;;;;9.06;53.51;101695.13;4215847;28;19920;-50
2024/01/07 09:31:59;;;;;;;;;;;;;;;9.06;53.24;101704.75;4216138;28;19920;-50
2024/01/07 09:34:02;;;;;;;;;;;;;;;9.08;53.30;101708.25;4216064;28;20473;-51
2024/01/07 09:36:04;;;;;;;;;;;;;;;9.07;53.06;101701.25;4215930;28;19930;-51
2024/01/07 09:38:21;;;;;;;;;;;;;;;9.07;53.26;101709.13;4215586;28;19920;-48
2024/01/07 09:40:22;;;;;;;;;;;;;;;9.06;53.06;101708.25;4215773;28;20020;-50
2024/01/07 09:42:24;;;;;;;;;;;;;;;9.06;53.17;101707.38;4215848;28;19924;-47
2024/01/07 09:44:25;;;;;;;;;;;;;;;9.05;53.14;101710.88;4215997;28;19920;-50
2024/01/07 09:46:29;;;;;;;;;;;;;;;9.05;53.24;101709.16;4215700;28;19931;-51
2024/01/07 09:48:30;;;;;;;;;;;;;;;9.05;53.06;101714.41;4214618;28;19927;-49
2024/01/07 09:50:32;;;;;;;;;;;;;;;9.06;52.89;101716.09;4215820;28;19923;-49
2024/01/07 09:52:34;;;;;;;;;;;;;;;9.06;52.97;101712.63;4215428;28;20305;-51
2024/01/07 09:54:36;;;;;;;;;;;;;;;9.07;52.73;101719.63;4215635;28;20371;-49
2024/01/07 09:56:41;;;;;;;;;;;;;;;9.07;52.79;101717.00;4215567;28;19982;-49
2024/01/07 09:58:43;;;;;;;;;;;;;;;9.07;53.05;101724.88;4215482;28;20382;-48
2024/01/07 10:00:45;;;;;;;;;;;;;;;9.06;52.84;101723.13;4214325;28;19920;-50
2024/01/07 10:02:46;;;;;;;;;;;;;;;9.06;53.13;101728.38;4214499;28;19958;-47
2024/01/07 10:04:49;;;;;;;;;;;;;;;9.06;52.88;101718.72;4215551;28;19920;-51
2024/01/07 10:06:54;;;;;;;;;;;;;;;9.06;52.89;101723.13;4214795;28;19920;-49
2024/01/07 10:08:56;;;;;;;;;;;;;;;9.05;52.88;101714.41;4215370;28;19920;-50
2024/01/07 10:10:58;;;;;;;;;;;;;;;9.05;53.06;101724.91;4215452;28;20027;-49
2024/01/07 10:12:59;;;;;;;;;;;;;;;9.05;52.96;101724.00;4215354;28;19920;-52
2024/01/07 10:15:01;;;;;;;;;;;;;;;9.05;52.63;101731.88;4215231;28;19920;-50
2024/01/07 10:17:13;;;;;;;;;;;;;;;9.05;52.82;101722.28;4214958;28;20003;-48
2024/01/07 10:19:20;;;;;;;;;;;;;;;9.04;52.88;101725.78;4215475;28;20380;-51
2024/01/07 10:21:23;;;;;;;;;;;;;;;9.04;52.81;101725.78;4214949;28;19920;-50
2024/01/07 10:23:26;;;;;;;;;;;;;;;9.04;52.82;101728.41;4215033;28;19923;-49
2024/01/07 10:25:31;;;;;;;;;;;;;;;9.05;52.63;101732.78;4215121;28;19926;-48
2024/01/07 10:27:36;;;;;;;;;;;;;;;9.04;52.78;101733.66;4215075;28;19920;-48
2024/01/07 10:29:38;;;;;;;;;;;;;;;9.04;52.64;101731.03;4215143;28;19926;-49
2024/01/07 10:31:40;;;;;;;;;;;;;;;9.04;53.15;101735.38;4215129;28;19955;-51
2024/01/07 10:33:42;;;;;;;;;;;;;;;9.03;52.96;101731.03;4214907;28;19920;-51
2024/01/07 10:35:48;;;;;;;;;;;;;;;9.02;52.80;101738.03;4214944;28;20012;-49